createdAt,value
2023-04-22T00:00:33.951Z,139.47
2023-04-22T00:01:33.976Z,139.47
2023-04-22T00:02:34.109Z,140.04
2023-04-22T00:03:34.258Z,139.99
2023-04-22T00:04:34.236Z,139.21
2023-04-22T00:05:34.203Z,140.13
2023-04-22T00:06:34.105Z,140.41
2023-04-22T00:07:34.140Z,138.87
2023-04-22T00:08:34.152Z,139.77
2023-04-22T00:09:34.173Z,140.12
2023-04-22T00:10:34.204Z,139.94
2023-04-22T00:11:34.221Z,139.37
2023-04-22T00:12:34.261Z,138.81
2023-04-22T00:13:34.263Z,139.59
2023-04-22T00:14:34.284Z,139.12
2023-04-22T00:15:34.322Z,141.00
2023-04-22T00:16:34.365Z,139.51
2023-04-22T00:17:34.395Z,140.09
2023-04-22T00:18:34.370Z,138.64
2023-04-22T00:19:34.413Z,140.91
2023-04-22T00:20:34.415Z,140.91
2023-04-22T00:21:34.427Z,139.88
2023-04-22T00:22:34.456Z,139.83
2023-04-22T00:23:34.474Z,140.11
2023-04-22T00:24:34.496Z,139.39
2023-04-22T00:25:34.509Z,138.32
2023-04-22T00:26:34.533Z,140.51
2023-04-22T00:27:34.558Z,139.33
2023-04-22T00:28:34.592Z,138.61
2023-04-22T00:29:34.601Z,141.30
2023-04-22T00:30:34.627Z,140.53
2023-04-22T00:31:34.677Z,139.92
2023-04-22T00:32:34.745Z,141.77
2023-04-22T00:33:34.677Z,139.91
2023-04-22T00:34:34.697Z,140.41
2023-04-22T00:35:34.737Z,140.30
2023-04-22T00:36:34.756Z,141.33
2023-04-22T00:37:34.773Z,140.21
2023-04-22T00:38:34.795Z,140.17
2023-04-22T00:39:34.827Z,140.32
2023-04-22T00:40:34.836Z,140.26
2023-04-22T00:41:34.857Z,139.98
2023-04-22T00:42:34.904Z,139.26
2023-04-22T00:43:34.930Z,140.15
2023-04-22T00:44:34.956Z,140.08
2023-04-22T00:45:34.998Z,140.37
2023-04-22T00:46:35.073Z,140.23
2023-04-22T00:47:35.083Z,139.90
2023-04-22T00:48:35.077Z,140.21
2023-04-22T00:49:35.105Z,141.29
2023-04-22T00:50:35.135Z,140.72
2023-04-22T00:51:35.155Z,139.15
2023-04-22T00:52:35.185Z,140.63
2023-04-22T00:53:35.197Z,140.23
2023-04-22T00:54:35.224Z,140.07
2023-04-22T00:55:35.268Z,139.96
2023-04-22T00:56:35.282Z,140.56
2023-04-22T00:57:35.311Z,140.20
2023-04-22T00:58:35.356Z,139.42
2023-04-22T00:59:35.362Z,140.15
2023-04-22T01:00:35.446Z,139.06
2023-04-22T01:01:35.437Z,141.17
2023-04-22T01:02:35.504Z,139.27
2023-04-22T01:03:35.687Z,141.01
2023-04-22T01:04:35.501Z,138.97
2023-04-22T01:05:35.533Z,139.52
2023-04-22T01:06:35.647Z,139.18
2023-04-22T01:07:35.585Z,140.70
2023-04-22T01:08:35.618Z,140.55
2023-04-22T01:09:35.632Z,140.12
2023-04-22T01:10:35.661Z,139.97
2023-04-22T01:11:35.679Z,139.62
2023-04-22T01:12:35.700Z,139.88
2023-04-22T01:13:35.746Z,141.21
2023-04-22T01:14:35.763Z,139.56
2023-04-22T01:15:35.792Z,139.95
2023-04-22T01:16:35.884Z,140.17
2023-04-22T01:17:35.887Z,140.01
2023-04-22T01:18:35.890Z,140.74
2023-04-22T01:19:35.933Z,139.44
2023-04-22T01:20:35.956Z,140.88
2023-04-22T01:21:35.966Z,141.05
2023-04-22T01:22:35.993Z,140.53
2023-04-22T01:23:36.041Z,140.97
2023-04-22T01:24:36.050Z,139.66
2023-04-22T01:25:36.096Z,141.04
2023-04-22T01:26:36.119Z,140.90
2023-04-22T01:27:36.156Z,140.52
2023-04-22T01:28:36.189Z,140.34
2023-04-22T01:29:36.204Z,140.06
2023-04-22T01:30:36.232Z,139.75
2023-04-22T01:31:36.291Z,140.61
2023-04-22T01:32:36.329Z,140.09
2023-04-22T01:33:36.381Z,138.71
2023-04-22T01:34:36.328Z,138.31
2023-04-22T01:35:36.352Z,140.32
2023-04-22T01:36:36.380Z,140.08
2023-04-22T01:37:36.407Z,140.35
2023-04-22T01:38:36.437Z,139.93
2023-04-22T01:39:36.452Z,142.14
2023-04-22T01:40:36.498Z,139.74
2023-04-22T01:41:36.527Z,140.38
2023-04-22T01:42:36.583Z,140.08
2023-04-22T01:43:36.598Z,139.24
2023-04-22T01:44:36.612Z,140.16
2023-04-22T01:45:36.743Z,140.56
2023-04-22T01:46:36.732Z,141.53
2023-04-22T01:47:36.817Z,140.42
2023-04-22T01:48:36.729Z,140.47
2023-04-22T01:49:36.772Z,139.84
2023-04-22T01:50:36.784Z,139.63
2023-04-22T01:51:36.812Z,140.04
2023-04-22T01:52:36.848Z,139.68
2023-04-22T01:53:36.871Z,139.91
2023-04-22T01:54:36.897Z,140.13
2023-04-22T01:55:36.924Z,139.90
2023-04-22T01:56:36.966Z,138.36
2023-04-22T01:57:36.972Z,139.30
2023-04-22T01:58:37.011Z,139.60
2023-04-22T01:59:37.234Z,139.41
2023-04-22T02:00:37.061Z,139.64
2023-04-22T02:01:37.155Z,139.94
2023-04-22T02:02:37.158Z,139.79
2023-04-22T02:03:37.180Z,139.96
2023-04-22T02:04:37.212Z,140.16
2023-04-22T02:05:37.216Z,139.66
2023-04-22T02:06:37.239Z,139.04
2023-04-22T02:07:37.283Z,140.18
2023-04-22T02:08:37.301Z,139.82
2023-04-22T02:09:37.539Z,139.01
2023-04-22T02:10:37.370Z,138.55
2023-04-22T02:11:37.391Z,140.01
2023-04-22T02:12:37.422Z,139.82
2023-04-22T02:13:37.449Z,141.09
2023-04-22T02:14:37.485Z,139.24
2023-04-22T02:15:37.588Z,140.45
2023-04-22T02:16:37.547Z,140.60
2023-04-22T02:17:37.584Z,138.74
2023-04-22T02:18:37.645Z,138.97
2023-04-22T02:19:38.477Z,137.44
2023-04-22T02:20:37.676Z,139.82
2023-04-22T02:21:37.706Z,139.81
2023-04-22T02:22:37.739Z,138.06
2023-04-22T02:23:37.774Z,138.95
2023-04-22T02:24:37.816Z,139.41
2023-04-22T02:25:37.845Z,139.29
2023-04-22T02:26:37.868Z,139.12
2023-04-22T02:27:37.888Z,139.17
2023-04-22T02:28:37.983Z,138.95
2023-04-22T02:29:38.250Z,138.43
2023-04-22T02:30:37.987Z,139.05
2023-04-22T02:31:38.114Z,138.44
2023-04-22T02:32:38.059Z,139.77
2023-04-22T02:33:38.063Z,138.09
2023-04-22T02:34:38.136Z,139.35
2023-04-22T02:35:38.129Z,137.80
2023-04-22T02:36:38.158Z,139.85
2023-04-22T02:37:38.179Z,138.98
2023-04-22T02:38:38.215Z,139.51
2023-04-22T02:39:38.684Z,137.11
2023-04-22T02:40:38.283Z,139.56
2023-04-22T02:41:38.312Z,137.80
2023-04-22T02:42:38.350Z,139.35
2023-04-22T02:43:38.372Z,139.50
2023-04-22T02:44:38.425Z,139.18
2023-04-22T02:45:38.453Z,137.73
2023-04-22T02:46:38.592Z,139.34
2023-04-22T02:47:38.546Z,139.28
2023-04-22T02:48:38.547Z,138.16
2023-04-22T02:49:38.795Z,139.24
2023-04-22T02:50:38.627Z,138.02
2023-04-22T02:51:38.679Z,138.59
2023-04-22T02:52:38.677Z,137.62
2023-04-22T02:53:38.723Z,140.16
2023-04-22T02:54:38.753Z,138.42
2023-04-22T02:55:38.784Z,137.87
2023-04-22T02:56:38.816Z,135.28
2023-04-22T02:57:38.868Z,139.76
2023-04-22T02:58:38.898Z,138.72
2023-04-22T02:59:39.195Z,138.11
2023-04-22T03:00:38.994Z,137.82
2023-04-22T03:01:39.014Z,137.87
2023-04-22T03:02:39.328Z,137.96
2023-04-22T03:03:39.336Z,139.47
2023-04-22T03:04:39.112Z,138.19
2023-04-22T03:05:39.145Z,137.65
2023-04-22T03:06:39.195Z,138.29
2023-04-22T03:07:39.210Z,139.12
2023-04-22T03:08:39.250Z,138.05
2023-04-22T03:09:39.665Z,139.17
2023-04-22T03:10:39.333Z,138.61
2023-04-22T03:11:39.364Z,137.35
2023-04-22T03:12:39.399Z,137.89
2023-04-22T03:13:39.429Z,139.46
2023-04-22T03:14:39.463Z,138.66
2023-04-22T03:15:39.483Z,139.34
2023-04-22T03:16:39.558Z,139.25
2023-04-22T03:17:39.572Z,139.16
2023-04-22T03:18:39.598Z,137.01
2023-04-22T03:19:39.876Z,138.14
2023-04-22T03:20:39.673Z,138.10
2023-04-22T03:21:39.702Z,137.26
2023-04-22T03:22:39.736Z,138.80
2023-04-22T03:23:39.781Z,137.77
2023-04-22T03:24:39.840Z,138.08
2023-04-22T03:25:39.917Z,137.18
2023-04-22T03:26:39.887Z,138.55
2023-04-22T03:27:39.928Z,138.36
2023-04-22T03:28:39.973Z,138.07
2023-04-22T03:29:40.249Z,138.87
2023-04-22T03:30:40.029Z,138.67
2023-04-22T03:31:40.128Z,137.53
2023-04-22T03:32:40.392Z,137.95
2023-04-22T03:33:40.118Z,137.93
2023-04-22T03:34:40.169Z,137.94
2023-04-22T03:35:40.222Z,136.98
2023-04-22T03:36:40.230Z,137.54
2023-04-22T03:37:40.276Z,138.63
2023-04-22T03:38:40.294Z,136.39
2023-04-22T03:39:40.567Z,137.92
2023-04-22T03:40:40.388Z,136.24
2023-04-22T03:41:40.416Z,136.73
2023-04-22T03:42:40.464Z,136.08
2023-04-22T03:43:40.498Z,136.81
2023-04-22T03:44:40.543Z,136.69
2023-04-22T03:45:40.602Z,137.52
2023-04-22T03:46:40.588Z,136.19
2023-04-22T03:47:40.666Z,137.03
2023-04-22T03:48:40.660Z,136.81
2023-04-22T03:49:40.950Z,137.13
2023-04-22T03:50:40.725Z,137.95
2023-04-22T03:51:40.753Z,136.16
2023-04-22T03:52:40.769Z,136.80
2023-04-22T03:53:40.779Z,137.66
2023-04-22T03:54:40.802Z,137.39
2023-04-22T03:55:40.845Z,136.43
2023-04-22T03:56:40.890Z,136.79
2023-04-22T03:57:40.937Z,136.97
2023-04-22T03:58:40.955Z,137.29
2023-04-22T03:59:41.535Z,138.45
2023-04-22T04:00:41.036Z,136.62
2023-04-22T04:01:41.056Z,138.50
2023-04-22T04:02:41.241Z,137.15
2023-04-22T04:03:41.334Z,136.82
2023-04-22T04:04:41.312Z,136.80
2023-04-22T04:05:41.320Z,136.40
2023-04-22T04:06:41.242Z,136.68
2023-04-22T04:07:41.267Z,137.00
2023-04-22T04:08:41.314Z,136.32
2023-04-22T04:09:41.876Z,136.82
2023-04-22T04:10:41.436Z,135.42
2023-04-22T04:11:41.411Z,135.38
2023-04-22T04:12:41.411Z,136.81
2023-04-22T04:13:41.435Z,135.31
2023-04-22T04:14:41.485Z,134.85
2023-04-22T04:15:41.548Z,134.78
2023-04-22T04:16:41.546Z,134.59
2023-04-22T04:17:41.684Z,134.88
2023-04-22T04:18:41.601Z,137.70
2023-04-22T04:19:41.980Z,135.35
2023-04-22T04:20:41.682Z,136.81
2023-04-22T04:21:41.729Z,135.53
2023-04-22T04:22:41.760Z,136.22
2023-04-22T04:23:41.773Z,136.70
2023-04-22T04:24:41.829Z,137.44
2023-04-22T04:25:41.853Z,135.33
2023-04-22T04:26:41.874Z,136.58
2023-04-22T04:27:41.899Z,136.28
2023-04-22T04:28:41.945Z,136.31
2023-04-22T04:29:42.279Z,136.16
2023-04-22T04:30:42.019Z,135.85
2023-04-22T04:31:42.167Z,137.32
2023-04-22T04:32:42.145Z,134.68
2023-04-22T04:33:42.128Z,136.17
2023-04-22T04:34:42.179Z,134.41
2023-04-22T04:35:42.190Z,137.13
2023-04-22T04:36:42.233Z,135.76
2023-04-22T04:37:42.262Z,136.28
2023-04-22T04:38:42.293Z,134.90
2023-04-22T04:39:42.697Z,135.81
2023-04-22T04:40:42.372Z,136.25
2023-04-22T04:41:42.397Z,135.45
2023-04-22T04:42:42.484Z,134.99
2023-04-22T04:43:42.463Z,135.01
2023-04-22T04:44:42.492Z,135.49
2023-04-22T04:45:42.526Z,133.11
2023-04-22T04:46:42.597Z,134.75
2023-04-22T04:47:42.605Z,135.77
2023-04-22T04:48:42.622Z,134.76
2023-04-22T04:49:42.914Z,134.58
2023-04-22T04:50:42.693Z,134.76
2023-04-22T04:51:42.725Z,134.16
2023-04-22T04:52:42.742Z,135.33
2023-04-22T04:53:42.782Z,134.75
2023-04-22T04:54:42.805Z,135.07
2023-04-22T04:55:42.837Z,134.51
2023-04-22T04:56:42.862Z,135.64
2023-04-22T04:57:42.884Z,134.36
2023-04-22T04:58:42.929Z,134.08
2023-04-22T04:59:42.978Z,133.78
2023-04-22T05:00:42.988Z,133.97
2023-04-22T05:01:43.112Z,134.28
2023-04-22T05:02:43.120Z,135.26
2023-04-22T05:03:43.150Z,134.29
2023-04-22T05:04:43.204Z,134.80
2023-04-22T05:05:43.133Z,134.12
2023-04-22T05:06:43.162Z,135.84
2023-04-22T05:07:43.177Z,135.08
2023-04-22T05:08:43.218Z,134.72
2023-04-22T05:09:43.348Z,135.18
2023-04-22T05:10:43.273Z,135.72
2023-04-22T05:11:43.301Z,134.42
2023-04-22T05:12:43.312Z,134.29
2023-04-22T05:13:43.345Z,134.59
2023-04-22T05:14:43.384Z,134.26
2023-04-22T05:15:43.398Z,134.67
2023-04-22T05:16:43.537Z,134.40
2023-04-22T05:17:43.561Z,132.69
2023-04-22T05:18:43.484Z,134.70
2023-04-22T05:19:43.486Z,134.72
2023-04-22T05:20:43.513Z,133.69
2023-04-22T05:21:43.556Z,130.51
2023-04-22T05:22:43.560Z,132.88
2023-04-22T05:23:43.582Z,134.30
2023-04-22T05:24:43.622Z,134.86
2023-04-22T05:25:43.668Z,135.81
2023-04-22T05:26:43.672Z,131.71
2023-04-22T05:27:43.704Z,133.70
2023-04-22T05:28:43.712Z,132.68
2023-04-22T05:29:43.746Z,133.51
2023-04-22T05:30:43.768Z,132.45
2023-04-22T05:31:43.797Z,133.12
2023-04-22T05:32:43.879Z,132.01
2023-04-22T05:33:43.845Z,133.95
2023-04-22T05:34:43.853Z,133.82
2023-04-22T05:35:43.877Z,132.14
2023-04-22T05:36:43.904Z,132.65
2023-04-22T05:37:43.929Z,133.12
2023-04-22T05:38:43.951Z,131.50
2023-04-22T05:39:43.961Z,131.25
2023-04-22T05:40:43.977Z,129.95
2023-04-22T05:41:46.732Z,134.04
2023-04-22T05:42:43.960Z,133.12
2023-04-22T05:43:43.936Z,134.91
2023-04-22T05:44:43.873Z,133.36
2023-04-22T05:45:43.895Z,132.77
2023-04-22T05:46:43.836Z,130.33
2023-04-22T05:47:43.801Z,131.33
2023-04-22T05:48:43.723Z,130.19
2023-04-22T05:49:43.687Z,134.02
2023-04-22T05:50:43.653Z,131.20
2023-04-22T05:51:43.625Z,131.81
2023-04-22T05:52:43.579Z,131.23
2023-04-22T05:53:43.539Z,132.81
2023-04-22T05:54:43.498Z,126.58
2023-04-22T05:55:43.457Z,132.69
2023-04-22T05:56:43.416Z,132.15
2023-04-22T05:57:43.369Z,132.11
2023-04-22T05:58:43.339Z,131.48
2023-04-22T05:59:43.515Z,130.95
2023-04-22T06:00:43.259Z,127.31
2023-04-22T06:01:43.222Z,132.61
2023-04-22T06:02:43.335Z,131.07
2023-04-22T06:03:43.336Z,130.51
2023-04-22T06:04:43.407Z,130.30
2023-04-22T06:05:43.133Z,130.99
2023-04-22T06:06:43.042Z,128.02
2023-04-22T06:07:43.016Z,122.50
2023-04-22T06:08:42.983Z,124.25
2023-04-22T06:09:43.093Z,125.72
2023-04-22T06:10:42.892Z,120.97
2023-04-22T06:11:42.859Z,121.67
2023-04-22T06:12:42.803Z,117.94
2023-04-22T06:13:42.753Z,121.77
2023-04-22T06:14:42.701Z,118.05
2023-04-22T06:15:42.704Z,115.14
2023-04-22T06:16:42.618Z,116.01
2023-04-22T06:17:42.654Z,117.46
2023-04-22T06:18:42.541Z,117.00
2023-04-22T06:19:42.549Z,118.08
2023-04-22T06:20:42.433Z,115.33
2023-04-22T06:21:42.420Z,116.66
2023-04-22T06:22:42.356Z,114.83
2023-04-22T06:23:42.310Z,116.66
2023-04-22T06:24:42.266Z,115.52
2023-04-22T06:25:42.206Z,116.16
2023-04-22T06:26:42.162Z,115.11
2023-04-22T06:27:42.117Z,114.93
2023-04-22T06:28:42.055Z,113.79
2023-04-22T06:29:42.049Z,113.71
2023-04-22T06:30:41.945Z,113.63
2023-04-22T06:31:41.953Z,114.37
2023-04-22T06:32:41.865Z,113.85
2023-04-22T06:33:41.776Z,114.90
2023-04-22T06:34:41.732Z,116.02
2023-04-22T06:35:41.677Z,114.79
2023-04-22T06:36:41.619Z,115.27
2023-04-22T06:37:41.572Z,116.82
2023-04-22T06:38:41.519Z,117.94
2023-04-22T06:39:41.757Z,116.31
2023-04-22T06:40:41.408Z,116.24
2023-04-22T06:41:42.141Z,118.38
2023-04-22T06:42:41.305Z,117.57
2023-04-22T06:43:41.249Z,119.42
2023-04-22T06:44:41.325Z,119.39
2023-04-22T06:45:41.152Z,118.56
2023-04-22T06:46:41.144Z,120.43
2023-04-22T06:47:41.114Z,120.08
2023-04-22T06:48:41.012Z,119.99
2023-04-22T06:49:41.695Z,118.25
2023-04-22T06:50:40.961Z,118.70
2023-04-22T06:51:40.858Z,121.26
2023-04-22T06:52:40.821Z,120.46
2023-04-22T06:53:40.773Z,118.37
2023-04-22T06:54:40.710Z,117.16
2023-04-22T06:55:40.658Z,122.41
2023-04-22T06:56:40.615Z,119.19
2023-04-22T06:57:40.543Z,119.51
2023-04-22T06:58:40.497Z,118.72
2023-04-22T06:59:40.880Z,119.57
2023-04-22T07:00:40.403Z,118.82
2023-04-22T07:01:40.387Z,117.71
2023-04-22T07:02:40.374Z,122.87
2023-04-22T07:03:40.435Z,116.73
2023-04-22T07:04:40.283Z,117.27
2023-04-22T07:05:40.156Z,118.82
2023-04-22T07:06:40.109Z,117.61
2023-04-22T07:07:40.073Z,124.56
2023-04-22T07:08:40.023Z,119.08
2023-04-22T07:09:40.217Z,118.04
2023-04-22T07:10:39.920Z,119.21
2023-04-22T07:11:39.864Z,121.65
2023-04-22T07:12:39.816Z,122.17
2023-04-22T07:13:39.771Z,117.00
2023-04-22T07:14:39.715Z,117.67
2023-04-22T07:15:39.675Z,122.25
2023-04-22T07:16:39.708Z,118.43
2023-04-22T07:17:39.632Z,120.41
2023-04-22T07:18:39.548Z,123.25
2023-04-22T07:19:39.837Z,119.76
2023-04-22T07:20:39.434Z,117.88
2023-04-22T07:21:39.384Z,122.85
2023-04-22T07:22:39.333Z,121.17
2023-04-22T07:23:39.271Z,123.50
2023-04-22T07:24:39.281Z,122.54
2023-04-22T07:25:39.180Z,123.45
2023-04-22T07:26:39.140Z,118.53
2023-04-22T07:27:39.089Z,117.75
2023-04-22T07:28:39.026Z,122.16
2023-04-22T07:29:39.122Z,119.08
2023-04-22T07:30:38.918Z,120.18
2023-04-22T07:31:38.920Z,121.64
2023-04-22T07:32:38.867Z,121.44
2023-04-22T07:33:38.761Z,119.11
2023-04-22T07:34:39.338Z,122.57
2023-04-22T07:35:38.654Z,122.53
2023-04-22T07:36:38.608Z,120.27
2023-04-22T07:37:38.636Z,122.76
2023-04-22T07:38:38.525Z,121.42
2023-04-22T07:39:38.859Z,117.41
2023-04-22T07:40:38.421Z,120.99
2023-04-22T07:41:38.376Z,123.02
2023-04-22T07:42:38.327Z,123.85
2023-04-22T07:43:38.275Z,117.12
2023-04-22T07:44:39.515Z,119.93
2023-04-22T07:45:38.238Z,121.29
2023-04-22T07:46:38.148Z,122.41
2023-04-22T07:47:38.138Z,123.92
2023-04-22T07:48:38.064Z,125.01
2023-04-22T07:49:38.320Z,119.90
2023-04-22T07:50:38.791Z,121.12
2023-04-22T07:51:37.961Z,119.51
2023-04-22T07:52:37.920Z,121.42
2023-04-22T07:53:37.880Z,121.02
2023-04-22T07:54:37.852Z,120.53
2023-04-22T07:55:37.822Z,124.17
2023-04-22T07:56:37.772Z,124.49
2023-04-22T07:57:37.744Z,127.66
2023-04-22T07:58:37.711Z,123.44
2023-04-22T07:59:37.818Z,125.14
2023-04-22T08:00:37.702Z,119.22
2023-04-22T08:01:37.609Z,123.25
2023-04-22T08:02:37.656Z,126.54
2023-04-22T08:03:37.792Z,123.96
2023-04-22T08:04:37.577Z,122.04
2023-04-22T08:05:37.468Z,122.39
2023-04-22T08:06:37.457Z,119.98
2023-04-22T08:07:37.414Z,122.14
2023-04-22T08:08:37.364Z,120.80
2023-04-22T08:09:37.463Z,121.52
2023-04-22T08:10:37.309Z,123.73
2023-04-22T08:11:37.258Z,120.78
2023-04-22T08:12:37.251Z,124.68
2023-04-22T08:13:37.206Z,127.99
2023-04-22T08:14:37.171Z,126.15
2023-04-22T08:15:37.183Z,121.11
2023-04-22T08:16:37.101Z,121.60
2023-04-22T08:17:37.079Z,121.50
2023-04-22T08:18:37.022Z,127.80
2023-04-22T08:19:37.205Z,125.64
2023-04-22T08:20:36.964Z,121.40
2023-04-22T08:21:36.929Z,122.07
2023-04-22T08:22:37.011Z,125.55
2023-04-22T08:23:36.878Z,121.38
2023-04-22T08:24:36.838Z,124.73
2023-04-22T08:25:36.808Z,125.42
2023-04-22T08:26:36.787Z,121.32
2023-04-22T08:27:36.750Z,123.22
2023-04-22T08:28:36.721Z,124.60
2023-04-22T08:29:36.711Z,121.53
2023-04-22T08:30:36.670Z,125.47
2023-04-22T08:31:36.693Z,123.75
2023-04-22T08:32:36.647Z,127.06
2023-04-22T08:33:36.574Z,123.78
2023-04-22T08:34:37.179Z,124.00
2023-04-22T08:35:36.533Z,122.83
2023-04-22T08:36:36.492Z,128.76
2023-04-22T08:37:36.459Z,120.58
2023-04-22T08:38:36.440Z,122.87
2023-04-22T08:39:36.483Z,128.43
2023-04-22T08:40:36.396Z,125.49
2023-04-22T08:41:36.352Z,121.44
2023-04-22T08:42:36.327Z,123.90
2023-04-22T08:43:36.315Z,124.65
2023-04-22T08:44:36.285Z,123.31
2023-04-22T08:45:36.267Z,126.75
2023-04-22T08:46:36.234Z,127.58
2023-04-22T08:47:36.233Z,126.31
2023-04-22T08:48:36.172Z,125.69
2023-04-22T08:49:36.204Z,124.36
2023-04-22T08:50:36.133Z,121.26
2023-04-22T08:51:36.096Z,125.94
2023-04-22T08:52:36.053Z,123.47
2023-04-22T08:53:36.024Z,122.05
2023-04-22T08:54:36.007Z,126.77
2023-04-22T08:55:35.995Z,127.03
2023-04-22T08:56:36.029Z,127.18
2023-04-22T08:57:35.908Z,124.94
2023-04-22T08:58:35.889Z,126.94
2023-04-22T08:59:35.857Z,125.63
2023-04-22T09:00:35.831Z,122.96
2023-04-22T09:01:35.867Z,123.16
2023-04-22T09:02:35.803Z,123.10
2023-04-22T09:03:35.870Z,128.35
2023-04-22T09:04:35.789Z,124.89
2023-04-22T09:05:35.719Z,125.13
2023-04-22T09:06:35.697Z,129.55
2023-04-22T09:07:35.653Z,121.98
2023-04-22T09:08:35.631Z,125.22
2023-04-22T09:09:35.603Z,127.03
2023-04-22T09:10:35.564Z,125.61
2023-04-22T09:11:35.548Z,122.75
2023-04-22T09:12:35.518Z,124.63
2023-04-22T09:13:35.472Z,126.12
2023-04-22T09:14:35.463Z,122.41
2023-04-22T09:15:35.429Z,123.46
2023-04-22T09:16:35.479Z,122.17
2023-04-22T09:17:35.417Z,128.16
2023-04-22T09:18:35.352Z,128.09
2023-04-22T09:19:35.331Z,122.44
2023-04-22T09:20:35.297Z,120.98
2023-04-22T09:21:35.280Z,125.03
2023-04-22T09:22:35.230Z,122.50
2023-04-22T09:23:35.212Z,120.32
2023-04-22T09:24:35.173Z,123.54
2023-04-22T09:25:35.148Z,125.42
2023-04-22T09:26:35.131Z,121.07
2023-04-22T09:27:35.084Z,124.64
2023-04-22T09:28:35.056Z,126.02
2023-04-22T09:29:35.042Z,128.69
2023-04-22T09:30:35.009Z,122.45
2023-04-22T09:31:35.029Z,120.67
2023-04-22T09:32:35.036Z,123.17
2023-04-22T09:33:34.925Z,123.51
2023-04-22T09:34:34.908Z,124.15
2023-04-22T09:35:34.871Z,123.02
2023-04-22T09:36:34.834Z,121.59
2023-04-22T09:37:46.603Z,121.61
2023-04-22T09:38:35.774Z,121.72
2023-04-22T09:39:34.713Z,122.70
2023-04-22T09:40:34.659Z,122.43
2023-04-22T09:41:34.630Z,126.68
2023-04-22T09:42:34.581Z,125.64
2023-04-22T09:43:34.541Z,127.22
2023-04-22T09:44:34.497Z,128.42
2023-04-22T09:45:34.508Z,123.23
2023-04-22T09:46:34.410Z,125.76
2023-04-22T09:47:34.419Z,126.78
2023-04-22T09:48:34.317Z,126.14
2023-04-22T09:49:34.280Z,125.54
2023-04-22T09:50:34.250Z,119.67
2023-04-22T09:51:34.221Z,125.93
2023-04-22T09:52:34.179Z,123.89
2023-04-22T09:53:34.134Z,125.33
2023-04-22T09:54:34.079Z,124.61
2023-04-22T09:55:34.040Z,123.98
2023-04-22T09:56:34.015Z,125.54
2023-04-22T09:57:33.984Z,127.31
2023-04-22T09:58:33.943Z,127.55
2023-04-22T09:59:33.907Z,122.25
2023-04-22T10:00:33.871Z,122.27
2023-04-22T10:01:33.857Z,124.86
2023-04-22T10:02:33.873Z,125.95
2023-04-22T10:03:33.766Z,126.95
2023-04-22T10:04:33.761Z,122.77
2023-04-22T10:05:33.672Z,129.54
2023-04-22T10:06:33.637Z,121.98
2023-04-22T10:07:33.687Z,125.74
2023-04-22T10:08:33.566Z,122.29
2023-04-22T10:09:33.519Z,122.75
2023-04-22T10:10:33.462Z,125.23
2023-04-22T10:11:33.437Z,123.02
2023-04-22T10:12:36.048Z,127.06
2023-04-22T10:13:33.358Z,127.12
2023-04-22T10:14:33.355Z,124.24
2023-04-22T10:15:33.297Z,126.68
2023-04-22T10:16:33.274Z,126.71
2023-04-22T10:17:33.214Z,126.39
2023-04-22T10:18:33.155Z,131.17
2023-04-22T10:19:33.125Z,125.95
2023-04-22T10:20:33.085Z,122.87
2023-04-22T10:21:33.035Z,125.07
2023-04-22T10:22:32.988Z,121.51
2023-04-22T10:23:32.942Z,124.70
2023-04-22T10:24:32.893Z,124.23
2023-04-22T10:25:32.846Z,128.28
2023-04-22T10:26:32.800Z,123.81
2023-04-22T10:27:32.758Z,131.94
2023-04-22T10:28:32.722Z,125.56
2023-04-22T10:29:32.680Z,122.60
2023-04-22T10:30:32.624Z,130.32
2023-04-22T10:31:32.687Z,126.82
2023-04-22T10:32:32.557Z,125.70
2023-04-22T10:33:32.493Z,125.91
2023-04-22T10:34:32.453Z,123.04
2023-04-22T10:35:32.416Z,127.46
2023-04-22T10:36:32.370Z,124.42
2023-04-22T10:37:33.737Z,123.04
2023-04-22T10:38:32.268Z,127.33
2023-04-22T10:39:32.230Z,131.72
2023-04-22T10:40:32.187Z,122.03
2023-04-22T10:41:32.153Z,129.59
2023-04-22T10:42:32.093Z,124.46
2023-04-22T10:43:33.292Z,128.06
2023-04-22T10:44:32.003Z,124.63
2023-04-22T10:45:31.963Z,124.39
2023-04-22T10:46:31.977Z,128.53
2023-04-22T10:47:31.884Z,122.54
2023-04-22T10:48:31.832Z,125.80
2023-04-22T10:49:31.781Z,121.04
2023-04-22T10:50:31.732Z,120.41
2023-04-22T10:51:31.691Z,127.78
2023-04-22T10:52:31.638Z,128.46
2023-04-22T10:53:31.589Z,123.18
2023-04-22T10:54:32.488Z,122.48
2023-04-22T10:55:31.501Z,123.62
2023-04-22T10:56:31.479Z,122.34
2023-04-22T10:57:31.421Z,123.49
2023-04-22T10:58:31.389Z,125.00
2023-04-22T10:59:31.360Z,121.05
2023-04-22T11:01:31.292Z,124.70
2023-04-22T11:02:31.332Z,125.28
2023-04-22T11:03:31.420Z,123.27
2023-04-22T11:04:31.289Z,129.94
2023-04-22T11:05:31.113Z,121.32
2023-04-22T11:06:31.077Z,123.63
2023-04-22T11:07:31.034Z,119.91
2023-04-22T11:08:30.992Z,126.51
2023-04-22T11:09:30.942Z,121.24
2023-04-22T11:10:30.896Z,124.79
2023-04-22T11:11:30.855Z,124.06
2023-04-22T11:12:30.799Z,120.48
2023-04-22T11:13:30.756Z,127.26
2023-04-22T11:14:30.714Z,120.98
2023-04-22T11:15:30.659Z,124.26
2023-04-22T11:16:30.660Z,125.57
2023-04-22T11:17:30.589Z,119.85
2023-04-22T11:18:30.522Z,121.19
2023-04-22T11:19:30.475Z,121.94
2023-04-22T11:20:30.435Z,128.76
2023-04-22T11:21:30.379Z,124.48
2023-04-22T11:22:30.317Z,119.35
2023-04-22T11:23:30.272Z,122.75
2023-04-22T11:24:30.227Z,122.89
2023-04-22T11:25:30.182Z,120.65
2023-04-22T11:26:30.146Z,118.59
2023-04-22T11:27:30.117Z,125.46
2023-04-22T11:28:30.060Z,119.97
2023-04-22T11:29:30.034Z,125.76
2023-04-22T11:30:29.980Z,125.44
2023-04-22T11:31:29.989Z,126.05
2023-04-22T11:32:30.017Z,119.09
2023-04-22T11:33:29.870Z,122.17
2023-04-22T11:34:29.835Z,121.91
2023-04-22T11:35:29.803Z,119.62
2023-04-22T11:36:29.780Z,122.93
2023-04-22T11:37:29.724Z,121.14
2023-04-22T11:38:29.681Z,118.21
2023-04-22T11:39:29.631Z,125.53
2023-04-22T11:40:31.637Z,120.15
2023-04-22T11:41:29.543Z,120.32
2023-04-22T11:42:29.499Z,118.55
2023-04-22T11:43:29.476Z,119.74
2023-04-22T11:44:29.412Z,122.17
2023-04-22T11:45:29.422Z,123.73
2023-04-22T11:46:29.502Z,122.38
2023-04-22T11:47:29.283Z,121.11
2023-04-22T11:48:29.235Z,119.39
2023-04-22T11:49:29.190Z,119.23
2023-04-22T11:50:29.155Z,122.28
2023-04-22T11:51:29.105Z,121.23
2023-04-22T11:52:29.062Z,122.76
2023-04-22T11:53:29.044Z,119.80
2023-04-22T11:54:28.974Z,124.62
2023-04-22T11:55:28.956Z,117.58
2023-04-22T11:56:28.881Z,124.23
2023-04-22T11:57:28.839Z,119.39
2023-04-22T11:58:28.799Z,117.34
2023-04-22T11:59:28.747Z,118.65
2023-04-22T12:00:28.706Z,121.61
2023-04-22T12:01:28.655Z,118.73
2023-04-22T12:02:28.734Z,120.96
2023-04-22T12:03:28.920Z,118.10
2023-04-22T12:04:28.511Z,118.26
2023-04-22T12:05:28.503Z,116.42
2023-04-22T12:06:28.426Z,119.80
2023-04-22T12:07:28.389Z,117.08
2023-04-22T12:08:28.339Z,118.57
2023-04-22T12:09:28.322Z,120.24
2023-04-22T12:10:28.279Z,115.52
2023-04-22T12:11:28.237Z,116.41
2023-04-22T12:12:28.200Z,118.13
2023-04-22T12:13:28.154Z,117.90
2023-04-22T12:14:28.122Z,112.42
2023-04-22T12:15:28.075Z,119.11
2023-04-22T12:16:28.055Z,115.04
2023-04-22T12:17:28.050Z,118.41
2023-04-22T12:18:27.948Z,117.09
2023-04-22T12:19:27.901Z,114.15
2023-04-22T12:20:27.861Z,113.36
2023-04-22T12:21:27.812Z,117.17
2023-04-22T12:22:27.759Z,116.35
2023-04-22T12:23:27.711Z,111.38
2023-04-22T12:24:27.679Z,114.49
2023-04-22T12:25:27.642Z,115.39
2023-04-22T12:26:27.915Z,112.23
2023-04-22T12:27:27.549Z,121.91
2023-04-22T12:28:27.564Z,115.76
2023-04-22T12:29:27.473Z,112.62